Time;durP1;ratioP1;P1;durP2;ratioP2;P2;SDS_P1;SDS_P2;PMS_P1;PMS_P2;Temp;Humidity;BMP_temperature;BMP_pressure;BME280_temperature;BME280_humidity;BME280_pressure;Samples;Min_cycle;Max_cycle;Signal;HPM_P1;HPM_P2
2020/12/19 00:00:25;;;;;;;3.20;2.90;;;28.10;63.90;;;;;;5054568;28;20313;-73
2020/12/19 00:02:56;;;;;;;3.75;3.28;;;28.10;63.90;;;;;;5049009;28;20225;-74
2020/12/19 00:05:26;;;;;;;4.32;2.88;;;28.10;63.90;;;;;;5053646;28;20229;-74
2020/12/19 00:07:57;;;;;;;4.63;2.90;;;28.10;63.90;;;;;;5053047;28;20230;-74
2020/12/19 00:10:29;;;;;;;4.50;3.25;;;28.10;64.30;;;;;;5054937;28;20245;-74
2020/12/19 00:13:00;;;;;;;3.08;2.78;;;28.10;64.50;;;;;;5055027;28;20236;-74
2020/12/19 00:15:31;;;;;;;3.72;3.00;;;28.10;64.50;;;;;;5054606;28;20234;-74
2020/12/19 00:18:01;;;;;;;4.13;3.65;;;28.10;64.60;;;;;;5047354;28;20287;-74
2020/12/19 00:20:32;;;;;;;4.55;2.92;;;28.10;64.80;;;;;;5051664;28;20238;-74
2020/12/19 00:23:03;;;;;;;4.35;3.53;;;28.20;64.50;;;;;;5053942;28;20884;-74
2020/12/19 00:25:34;;;;;;;4.60;3.10;;;28.20;64.50;;;;;;5055823;28;20236;-74
2020/12/19 00:28:05;;;;;;;3.20;2.90;;;28.20;64.50;;;;;;5057328;28;20233;-74
2020/12/19 00:30:36;;;;;;;3.70;2.72;;;28.20;64.60;;;;;;5052559;28;20218;-74
2020/12/19 00:33:06;;;;;;;4.78;2.92;;;28.20;64.70;;;;;;5056701;28;20230;-74
2020/12/19 00:35:37;;;;;;;3.50;2.90;;;28.20;64.50;;;;;;5050889;28;20310;-74
2020/12/19 00:38:08;;;;;;;2.88;2.55;;;28.30;64.50;;;;;;5050438;28;20302;-74
2020/12/19 00:40:40;;;;;;;3.65;2.92;;;28.30;64.50;;;;;;5056687;28;20673;-74
2020/12/19 00:43:11;;;;;;;3.97;2.80;;;28.30;64.50;;;;;;5061759;28;20622;-74
2020/12/19 00:45:41;;;;;;;3.97;3.10;;;28.40;64.40;;;;;;5059543;28;20312;-74
2020/12/19 00:48:12;;;;;;;4.70;3.00;;;28.40;64.30;;;;;;5059581;28;20236;-75
2020/12/19 00:50:42;;;;;;;3.20;2.90;;;28.50;64.30;;;;;;5057780;28;20237;-74
2020/12/19 00:53:13;;;;;;;4.38;2.83;;;28.50;64.30;;;;;;5060469;28;20310;-74
2020/12/19 00:55:45;;;;;;;3.17;2.88;;;28.50;63.90;;;;;;5058972;28;20577;-74
2020/12/19 00:58:16;;;;;;;3.40;3.10;;;28.60;64.10;;;;;;5060679;28;20226;-73
2020/12/19 01:00:46;;;;;;;3.40;3.10;;;28.60;63.80;;;;;;5057851;28;20304;-74
2020/12/19 01:03:17;;;;;;;3.30;2.88;;;28.70;63.80;;;;;;5058745;28;20229;-73
2020/12/19 01:05:49;;;;;;;2.92;2.63;;;28.70;63.80;;;;;;5058848;28;20700;-74
2020/12/19 01:08:19;;;;;;;3.42;2.90;;;28.70;63.70;;;;;;5058698;28;20229;-74
2020/12/19 01:10:51;;;;;;;4.03;3.30;;;28.80;63.70;;;;;;5060137;28;20230;-74
2020/12/19 01:13:22;;;;;;;3.33;2.88;;;28.80;63.50;;;;;;5060019;28;20229;-73
2020/12/19 01:15:53;;;;;;;4.85;3.10;;;28.80;63.30;;;;;;5058697;28;20247;-74
2020/12/19 01:18:24;;;;;;;3.83;3.15;;;28.80;63.20;;;;;;5059434;28;20233;-74
2020/12/19 01:20:55;;;;;;;3.10;2.80;;;28.80;63.40;;;;;;5058356;28;20725;-73
2020/12/19 01:23:26;;;;;;;3.80;3.40;;;28.90;63.40;;;;;;5059191;28;20237;-74
2020/12/19 01:25:58;;;;;;;3.67;3.20;;;28.90;63.30;;;;;;5059359;28;20261;-74
2020/12/19 01:28:28;;;;;;;4.57;2.88;;;28.90;63.20;;;;;;5060312;28;20596;-74
2020/12/19 01:31:02;;;;;;;5.43;3.30;;;29.00;63.20;;;;;;5054511;28;20226;-74
2020/12/19 01:33:33;;;;;;;3.35;3.05;;;29.00;62.80;;;;;;5053149;28;20252;-74
2020/12/19 01:36:04;;;;;;;5.15;3.47;;;29.00;62.90;;;;;;5047938;28;20316;-76
2020/12/19 01:38:34;;;;;;;6.35;2.97;;;29.00;62.70;;;;;;5043800;28;20316;-76
2020/12/19 01:41:06;;;;;;;3.58;3.28;;;29.10;62.70;;;;;;5048924;28;20291;-75
2020/12/19 01:43:50;;;;;;;4.65;3.42;;;29.10;62.60;;;;;;5049372;28;20591;-75
2020/12/19 01:46:55;;;;;;;3.30;2.97;;;29.10;62.30;;;;;;5049861;28;20232;-75
2020/12/19 01:49:26;;;;;;;4.78;2.95;;;29.10;62.40;;;;;;5039668;28;20237;-74
2020/12/19 01:51:58;;;;;;;6.47;2.97;;;29.20;62.20;;;;;;5069186;28;20225;-74
2020/12/19 01:54:29;;;;;;;6.18;3.20;;;29.20;62.50;;;;;;5036666;28;20253;-74
2020/12/19 01:57:01;;;;;;;3.15;2.85;;;29.20;62.40;;;;;;5046410;28;20724;-73
2020/12/19 01:59:37;;;;;;;4.03;2.47;;;29.30;62.60;;;;;;5050852;28;20252;-74
2020/12/19 02:02:08;;;;;;;5.90;2.97;;;29.30;62.70;;;;;;5052407;28;20225;-75
2020/12/19 02:04:38;;;;;;;5.22;3.40;;;29.40;62.70;;;;;;5051431;28;20230;-74
2020/12/19 02:07:11;;;;;;;4.07;3.28;;;29.40;62.60;;;;;;5054761;28;20233;-75
2020/12/19 02:09:41;;;;;;;4.78;3.33;;;29.50;62.60;;;;;;5057271;28;20745;-74
2020/12/19 02:12:15;;;;;;;4.60;2.83;;;29.50;62.40;;;;;;5057430;28;20324;-74
2020/12/19 02:14:47;;;;;;;7.05;3.78;;;29.60;62.10;;;;;;5056446;28;20617;-74
2020/12/19 02:17:18;;;;;;;4.43;3.45;;;29.60;61.90;;;;;;5055645;28;20228;-75
2020/12/19 02:19:49;;;;;;;5.13;3.53;;;29.70;61.50;;;;;;5052804;28;20259;-74
2020/12/19 02:22:20;;;;;;;4.72;2.65;;;29.80;61.60;;;;;;5053957;28;20255;-73
2020/12/19 02:24:52;;;;;;;4.20;3.20;;;29.80;61.60;;;;;;5054362;28;20615;-73
2020/12/19 02:27:28;;;;;;;3.28;2.97;;;29.90;61.50;;;;;;5056418;28;20257;-73
2020/12/19 02:29:59;;;;;;;6.22;3.35;;;29.90;61.60;;;;;;5051914;28;20241;-74
2020/12/19 02:32:30;;;;;;;4.55;3.22;;;30.00;61.60;;;;;;5046657;28;20237;-74
2020/12/19 02:35:03;;;;;;;4.90;3.33;;;30.10;61.50;;;;;;5047262;28;20226;-74
2020/12/19 02:37:35;;;;;;;4.38;3.15;;;30.20;61.20;;;;;;5046075;28;20723;-74
2020/12/19 02:40:09;;;;;;;4.65;3.40;;;30.20;60.80;;;;;;5041675;28;20708;-73
2020/12/19 02:42:42;;;;;;;6.03;2.90;;;30.30;60.30;;;;;;5052024;28;20240;-74
2020/12/19 02:45:12;;;;;;;3.92;2.88;;;30.40;60.00;;;;;;5054394;28;20230;-73
2020/12/19 02:47:43;;;;;;;5.25;3.00;;;30.40;60.00;;;;;;5024947;28;20241;-73
2020/12/19 02:50:14;;;;;;;4.45;2.80;;;30.50;60.30;;;;;;5040394;28;20841;-73
2020/12/19 02:52:45;;;;;;;5.25;3.05;;;30.60;60.00;;;;;;5039568;28;20232;-73
2020/12/19 02:55:19;;;;;;;4.82;3.08;;;30.60;60.80;;;;;;5039555;28;20250;-74
2020/12/19 02:57:52;;;;;;;3.72;2.95;;;30.70;59.60;;;;;;5042650;28;20269;-73
2020/12/19 03:00:26;;;;;;;4.05;2.90;;;30.80;59.70;;;;;;5042280;28;20278;-74
2020/12/19 03:02:56;;;;;;;6.95;2.97;;;30.80;59.70;;;;;;5041096;28;20329;-73
2020/12/19 03:05:27;;;;;;;4.30;3.25;;;30.90;59.30;;;;;;5037414;28;20287;-73
2020/12/19 03:07:58;;;;;;;3.38;2.60;;;31.00;58.80;;;;;;5045990;28;20233;-74
2020/12/19 03:10:30;;;;;;;4.78;2.58;;;31.00;58.80;;;;;;5039085;28;20233;-73
2020/12/19 03:13:01;;;;;;;5.40;2.60;;;31.10;58.50;;;;;;5032900;28;20226;-73
2020/12/19 03:15:33;;;;;;;3.83;2.60;;;31.10;58.10;;;;;;5037272;28;20313;-73
2020/12/19 03:18:04;;;;;;;2.83;2.63;;;31.20;57.90;;;;;;5041226;28;20311;-73
2020/12/19 03:20:35;;;;;;;3.33;2.67;;;31.30;57.80;;;;;;5029246;28;20266;-74
2020/12/19 03:23:06;;;;;;;2.60;2.40;;;31.30;57.00;;;;;;5066004;28;20225;-73
2020/12/19 03:25:38;;;;;;;2.83;2.22;;;31.40;57.10;;;;;;5040635;28;20238;-73
2020/12/19 03:28:09;;;;;;;2.60;2.40;;;31.40;57.00;;;;;;5038178;28;20225;-74
2020/12/19 03:30:41;;;;;;;4.97;2.28;;;31.40;56.90;;;;;;5040653;28;20508;-73
2020/12/19 03:33:12;;;;;;;3.75;2.45;;;31.50;57.20;;;;;;5038149;28;20242;-72
2020/12/19 03:35:43;;;;;;;3.28;2.35;;;31.60;57.20;;;;;;5043641;28;20240;-72
2020/12/19 03:38:14;;;;;;;3.40;2.70;;;31.60;56.90;;;;;;5044238;28;20268;-73
2020/12/19 03:40:46;;;;;;;5.22;2.40;;;31.60;56.40;;;;;;5044327;28;20733;-73
2020/12/19 03:43:22;;;;;;;5.53;2.67;;;31.70;55.90;;;;;;5044276;28;20228;-73
2020/12/19 03:45:53;;;;;;;3.47;2.33;;;31.80;56.00;;;;;;5046027;28;20253;-74
2020/12/19 03:48:24;;;;;;;2.97;2.67;;;31.80;55.80;;;;;;5054139;28;20233;-73
2020/12/19 03:50:55;;;;;;;3.15;2.25;;;31.90;55.60;;;;;;5051765;28;20236;-72
2020/12/19 03:53:25;;;;;;;3.75;2.38;;;31.90;55.80;;;;;;5053008;28;20265;-73
2020/12/19 03:55:57;;;;;;;3.15;2.38;;;31.90;55.80;;;;;;5053131;28;20233;-73
2020/12/19 03:58:28;;;;;;;2.58;2.35;;;32.00;55.30;;;;;;5054771;28;21018;-73
2020/12/19 04:00:59;;;;;;;3.42;2.50;;;31.90;55.30;;;;;;5051766;28;20238;-74
2020/12/19 04:03:30;;;;;;;3.10;2.53;;;32.10;55.40;;;;;;5053253;28;20265;-74
2020/12/19 04:06:01;;;;;;;5.45;2.63;;;32.10;55.60;;;;;;5054259;28;20238;-74
2020/12/19 04:08:32;;;;;;;4.38;2.65;;;32.10;55.60;;;;;;5053720;28;20282;-74
2020/12/19 04:11:04;;;;;;;3.78;2.70;;;32.10;56.00;;;;;;5057498;28;20288;-73
2020/12/19 04:13:35;;;;;;;5.43;3.53;;;32.10;55.90;;;;;;5035874;28;20281;-73
2020/12/19 04:16:08;;;;;;;3.55;3.15;;;32.20;55.80;;;;;;5028237;28;20621;-73
2020/12/19 04:18:39;;;;;;;4.00;3.28;;;32.20;55.80;;;;;;5036420;28;20268;-74
2020/12/19 04:21:10;;;;;;;5.18;4.57;;;32.30;55.60;;;;;;5035678;28;20238;-73
2020/12/19 04:23:40;;;;;;;5.30;4.65;;;32.40;55.10;;;;;;5016789;28;20236;-73
2020/12/19 04:26:13;;;;;;;7.47;4.97;;;32.40;55.20;;;;;;5019605;28;20300;-73
2020/12/19 04:28:43;;;;;;;6.50;4.63;;;32.40;55.20;;;;;;5034075;28;20301;-73
2020/12/19 04:31:17;;;;;;;5.82;5.22;;;32.50;55.50;;;;;;5034848;28;20253;-73
2020/12/19 04:33:47;;;;;;;9.40;5.80;;;32.50;55.40;;;;;;5035611;28;20230;-73
2020/12/19 04:36:18;;;;;;;6.75;5.95;;;32.50;55.30;;;;;;5038322;28;20237;-73
2020/12/19 04:38:49;;;;;;;10.68;6.18;;;32.60;55.30;;;;;;5036288;28;20739;-73
2020/12/19 04:41:21;;;;;;;7.60;6.18;;;32.60;55.00;;;;;;5034789;28;20294;-72
2020/12/19 04:43:55;;;;;;;7.88;6.07;;;32.70;54.70;;;;;;5038771;28;20233;-73
2020/12/19 04:46:26;;;;;;;6.80;6.10;;;32.70;54.90;;;;;;5048209;28;20229;-73
2020/12/19 04:49:00;;;;;;;6.50;5.90;;;32.80;54.90;;;;;;5058657;28;20237;-73
2020/12/19 04:51:31;;;;;;;8.43;6.35;;;32.80;55.20;;;;;;5057456;28;20240;-73
2020/12/19 04:54:01;;;;;;;7.45;5.78;;;32.80;54.60;;;;;;5057343;28;20662;-73
2020/12/19 04:56:34;;;;;;;8.13;5.65;;;32.90;54.90;;;;;;5059246;28;20237;-74
2020/12/19 04:59:05;;;;;;;6.70;5.00;;;33.00;54.20;;;;;;5057575;28;20244;-74
2020/12/19 05:01:41;;;;;;;5.90;4.40;;;33.00;54.30;;;;;;5055573;28;20609;-73
2020/12/19 05:04:15;;;;;;;6.45;5.78;;;33.00;54.30;;;;;;5057456;28;20244;-73
2020/12/19 05:06:50;;;;;;;7.68;6.07;;;33.10;54.50;;;;;;5055710;28;20282;-72
2020/12/19 05:09:21;;;;;;;6.82;5.53;;;33.10;54.70;;;;;;5058598;28;20283;-72
2020/12/19 05:11:52;;;;;;;5.57;5.07;;;33.20;54.60;;;;;;5056861;28;20248;-71
2020/12/19 05:14:23;;;;;;;3.97;3.38;;;33.20;54.70;;;;;;5057536;28;20316;-72
2020/12/19 05:16:57;;;;;;;4.40;3.40;;;33.30;54.30;;;;;;5049823;28;20961;-73
2020/12/19 05:19:28;;;;;;;4.43;3.67;;;33.40;53.70;;;;;;5053890;28;20320;-72
2020/12/19 05:21:59;;;;;;;4.50;3.15;;;33.40;53.50;;;;;;5013752;28;20242;-73
2020/12/19 05:24:31;;;;;;;4.53;2.80;;;33.40;53.60;;;;;;5014731;28;20690;-72
2020/12/19 05:27:03;;;;;;;2.75;2.40;;;33.40;53.50;;;;;;5015472;28;20243;-73
2020/12/19 05:29:37;;;;;;;3.95;2.75;;;33.50;53.40;;;;;;5016121;28;20714;-72
2020/12/19 05:32:08;;;;;;;4.22;2.58;;;33.50;53.30;;;;;;5007805;28;20231;-72
2020/12/19 05:34:39;;;;;;;4.57;3.00;;;33.50;53.20;;;;;;4984917;28;20231;-73
2020/12/19 05:37:10;;;;;;;2.55;2.13;;;33.50;53.50;;;;;;4960633;28;20754;-73
2020/12/19 05:39:43;;;;;;;3.22;2.67;;;33.60;53.40;;;;;;4908818;29;20321;-73
2020/12/19 05:42:16;;;;;;;5.65;2.80;;;33.60;52.60;;;;;;4889786;29;20782;-73
2020/12/19 05:44:50;;;;;;;5.38;2.70;;;33.60;52.90;;;;;;4889434;29;20326;-73
2020/12/19 05:47:24;;;;;;;3.78;2.60;;;33.60;52.50;;;;;;4888462;29;20239;-73
2020/12/19 05:49:55;;;;;;;3.65;2.85;;;33.70;52.70;;;;;;4899180;29;20325;-73
2020/12/19 05:52:28;;;;;;;5.32;2.72;;;33.70;52.10;;;;;;4916728;29;20234;-73
2020/12/19 05:54:59;;;;;;;3.55;2.40;;;33.70;52.30;;;;;;4917334;29;20242;-73
2020/12/19 05:57:35;;;;;;;4.00;2.92;;;33.60;52.30;;;;;;4916833;29;20244;-74
2020/12/19 06:00:08;;;;;;;4.78;2.70;;;33.70;52.60;;;;;;4917898;29;20237;-73
2020/12/19 06:02:39;;;;;;;3.30;2.85;;;33.70;52.60;;;;;;4915981;29;20611;-72
2020/12/19 06:05:10;;;;;;;4.93;3.08;;;33.70;52.40;;;;;;4921814;29;20612;-72
2020/12/19 06:07:43;;;;;;;4.45;4.05;;;33.70;52.30;;;;;;4933940;28;20319;-73
2020/12/19 06:10:14;;;;;;;3.65;3.35;;;33.60;52.40;;;;;;4963024;28;20287;-73
2020/12/19 06:12:55;;;;;;;4.15;2.72;;;33.70;51.90;;;;;;5034766;28;20318;-73
2020/12/19 06:15:54;;;;;;;3.55;2.45;;;33.70;52.70;;;;;;5032185;28;20235;-73
2020/12/19 06:18:37;;;;;;;2.75;2.35;;;33.80;52.20;;;;;;5029532;28;20225;-73
2020/12/19 06:21:09;;;;;;;5.95;2.75;;;33.80;51.60;;;;;;5028473;28;20257;-73
2020/12/19 06:23:46;;;;;;;8.30;7.35;;;33.80;52.20;;;;;;5029042;28;20248;-73
2020/12/19 06:26:17;;;;;;;4.75;4.15;;;33.80;52.70;;;;;;5031333;28;20244;-73
2020/12/19 06:28:50;;;;;;;3.50;2.75;;;33.90;52.70;;;;;;5030983;28;20240;-73
2020/12/19 06:31:26;;;;;;;3.65;3.35;;;33.90;52.50;;;;;;5031367;28;20230;-72
2020/12/19 06:34:04;;;;;;;2.60;2.40;;;34.00;52.80;;;;;;5030546;28;20234;-73
2020/12/19 06:36:34;;;;;;;2.55;2.35;;;34.00;52.10;;;;;;4973061;28;20243;-73
2020/12/19 06:39:10;;;;;;;3.78;2.35;;;34.10;51.90;;;;;;4980139;28;20227;-72
2020/12/19 06:41:43;;;;;;;4.95;4.47;;;34.10;51.80;;;;;;5011547;28;20245;-72
2020/12/19 06:44:16;;;;;;;6.70;5.10;;;34.10;52.10;;;;;;5010744;28;20239;-73
2020/12/19 06:46:52;;;;;;;4.35;2.85;;;34.20;52.20;;;;;;5013010;28;20238;-73
2020/12/19 06:49:36;;;;;;;3.38;2.80;;;34.30;51.80;;;;;;5009248;28;20234;-73
2020/12/19 06:52:11;;;;;;;4.78;3.00;;;34.30;51.60;;;;;;5012119;28;20318;-73
2020/12/19 06:54:43;;;;;;;8.18;3.40;;;34.40;51.40;;;;;;5009299;28;20338;-72
2020/12/19 06:57:24;;;;;;;4.13;2.75;;;34.40;51.40;;;;;;5010238;28;20238;-73
2020/12/19 07:00:16;;;;;;;2.97;2.42;;;34.50;51.40;;;;;;5005750;28;20780;-73
2020/12/19 07:02:54;;;;;;;2.63;2.00;;;34.50;51.10;;;;;;5012878;28;20360;-73
2020/12/19 07:05:25;;;;;;;2.20;2.00;;;34.50;50.30;;;;;;5008573;28;20746;-73
2020/12/19 07:08:16;;;;;;;5.47;2.30;;;34.60;50.50;;;;;;5026584;28;20229;-73
2020/12/19 07:10:47;;;;;;;3.33;2.45;;;34.60;50.80;;;;;;5054239;28;20221;-74
2020/12/19 07:13:19;;;;;;;2.53;2.00;;;34.60;50.60;;;;;;5053467;28;20225;-73
2020/12/19 07:15:51;;;;;;;3.63;2.20;;;34.60;50.80;;;;;;5011050;28;20243;-73
2020/12/19 07:18:26;;;;;;;2.75;2.42;;;34.60;50.40;;;;;;5012715;28;20305;-73
2020/12/19 07:21:04;;;;;;;3.92;2.50;;;34.70;50.00;;;;;;5004431;28;20235;-73
2020/12/19 07:23:36;;;;;;;3.80;2.40;;;34.70;50.00;;;;;;5005806;28;20223;-73
2020/12/19 07:26:06;;;;;;;3.30;2.10;;;34.70;50.60;;;;;;5004238;28;20227;-74
2020/12/19 07:28:37;;;;;;;6.20;2.38;;;34.70;50.00;;;;;;5007168;28;20322;-74
2020/12/19 07:31:09;;;;;;;3.60;1.95;;;34.70;49.50;;;;;;5007251;28;20594;-74
2020/12/19 07:33:41;;;;;;;2.25;1.98;;;34.80;49.90;;;;;;5006834;28;20721;-73
2020/12/19 07:36:12;;;;;;;4.85;2.05;;;34.80;50.10;;;;;;5006301;28;20231;-74
2020/12/19 07:38:43;;;;;;;2.55;2.05;;;34.80;50.30;;;;;;5006957;28;20759;-74
2020/12/19 07:41:13;;;;;;;3.47;2.30;;;34.90;49.80;;;;;;5008345;28;20286;-74
2020/12/19 07:43:44;;;;;;;5.18;2.25;;;34.90;50.00;;;;;;4991080;28;20232;-74
2020/12/19 07:46:17;;;;;;;2.70;2.47;;;34.90;50.00;;;;;;5002151;28;20226;-74
2020/12/19 07:48:55;;;;;;;5.78;2.80;;;35.00;49.80;;;;;;5036893;28;20230;-74
2020/12/19 07:51:26;;;;;;;2.47;2.20;;;35.10;49.90;;;;;;5050708;28;20232;-74
2020/12/19 07:53:56;;;;;;;3.17;2.67;;;35.20;50.10;;;;;;5050705;28;20268;-74
2020/12/19 07:56:27;;;;;;;4.07;2.92;;;35.20;49.70;;;;;;5047010;28;20221;-74
2020/12/19 07:58:57;;;;;;;3.45;3.00;;;35.30;49.50;;;;;;5030734;28;20238;-74
2020/12/19 08:01:29;;;;;;;3.75;3.15;;;35.40;49.00;;;;;;5046868;28;20244;-74
2020/12/19 08:04:01;;;;;;;4.38;3.65;;;35.40;48.90;;;;;;5050167;28;20258;-74
2020/12/19 08:06:42;;;;;;;4.10;3.50;;;35.40;49.00;;;;;;5050240;28;20328;-74
2020/12/19 08:09:32;;;;;;;4.28;3.75;;;35.50;48.80;;;;;;5010318;28;20234;-74
2020/12/19 08:12:03;;;;;;;3.97;3.58;;;35.50;48.50;;;;;;5044157;28;20251;-74
2020/12/19 08:14:34;;;;;;;7.00;3.97;;;35.50;48.40;;;;;;5050985;28;20661;-73
2020/12/19 08:17:09;;;;;;;4.00;3.60;;;35.50;48.10;;;;;;5052605;28;20236;-73
2020/12/19 08:19:41;;;;;;;3.72;3.38;;;35.50;47.80;;;;;;5052701;28;20236;-73
2020/12/19 08:22:13;;;;;;;6.32;3.10;;;35.50;47.90;;;;;;5052983;28;20260;-73
2020/12/19 08:24:59;;;;;;;3.40;3.08;;;35.40;48.00;;;;;;5010190;28;20997;-74
2020/12/19 08:27:33;;;;;;;3.67;2.92;;;35.40;48.30;;;;;;5010152;28;20846;-73
2020/12/19 08:30:13;;;;;;;3.63;2.72;;;35.40;48.40;;;;;;5009488;28;20241;-73
2020/12/19 08:32:46;;;;;;;3.22;2.92;;;35.40;48.30;;;;;;5010499;28;20227;-74
2020/12/19 08:35:21;;;;;;;2.95;2.70;;;35.30;48.30;;;;;;5005115;28;20346;-74
2020/12/19 08:37:52;;;;;;;3.33;2.65;;;35.30;48.80;;;;;;5011258;28;20254;-73
2020/12/19 08:40:23;;;;;;;5.18;3.10;;;35.30;48.90;;;;;;5009483;28;20294;-74
2020/12/19 08:42:55;;;;;;;4.63;3.00;;;35.30;49.00;;;;;;5009718;28;20677;-74
2020/12/19 08:45:28;;;;;;;3.40;3.08;;;35.20;48.90;;;;;;5009441;28;20858;-74
2020/12/19 08:48:04;;;;;;;4.40;3.92;;;35.30;49.20;;;;;;5010664;28;20238;-74
2020/12/19 08:50:44;;;;;;;3.97;3.30;;;35.30;48.80;;;;;;5022932;28;20230;-73
2020/12/19 08:53:18;;;;;;;3.55;3.03;;;35.30;48.80;;;;;;5008646;28;20703;-73
2020/12/19 08:55:49;;;;;;;3.95;3.08;;;35.30;48.90;;;;;;5033101;28;20241;-73
2020/12/19 08:58:24;;;;;;;4.07;3.20;;;35.30;49.10;;;;;;5052161;28;20230;-73
2020/12/19 09:00:55;;;;;;;3.70;3.05;;;35.30;48.80;;;;;;5051497;28;20241;-74
2020/12/19 09:03:31;;;;;;;4.95;2.97;;;35.40;48.80;;;;;;5051373;28;20258;-74
2020/12/19 09:06:03;;;;;;;4.88;2.80;;;35.40;48.80;;;;;;5052157;28;20267;-73
2020/12/19 09:08:35;;;;;;;3.35;2.55;;;35.40;48.70;;;;;;5052041;28;20232;-74
2020/12/19 09:11:08;;;;;;;3.05;2.67;;;35.40;48.90;;;;;;5050842;28;20584;-73
2020/12/19 09:13:38;;;;;;;5.13;3.05;;;35.40;48.90;;;;;;5051784;28;20225;-73
2020/12/19 09:16:11;;;;;;;6.78;3.35;;;35.40;48.90;;;;;;5051900;28;20670;-73
2020/12/19 09:18:43;;;;;;;3.20;2.40;;;35.40;48.90;;;;;;5059080;28;20232;-73
2020/12/19 09:21:14;;;;;;;3.65;2.50;;;35.40;49.00;;;;;;5063469;28;20641;-73
2020/12/19 09:23:45;;;;;;;3.78;2.70;;;35.30;48.80;;;;;;4998446;28;20235;-73
2020/12/19 09:26:16;;;;;;;4.28;2.58;;;35.30;48.70;;;;;;5009253;28;20235;-73
2020/12/19 09:28:49;;;;;;;2.85;2.13;;;35.30;49.00;;;;;;5009165;28;20239;-73
2020/12/19 09:31:21;;;;;;;5.43;2.53;;;35.20;48.90;;;;;;5007466;28;20235;-73
2020/12/19 09:33:52;;;;;;;3.53;2.17;;;35.20;48.90;;;;;;5008382;28;20262;-73
2020/12/19 09:36:23;;;;;;;4.53;2.20;;;35.10;49.10;;;;;;5008881;28;20717;-73
2020/12/19 09:38:53;;;;;;;2.40;2.20;;;35.00;49.10;;;;;;5003954;28;20310;-73
2020/12/19 09:41:24;;;;;;;4.38;2.30;;;35.00;49.20;;;;;;5008895;28;20241;-73
2020/12/19 09:43:54;;;;;;;3.20;2.20;;;34.90;49.20;;;;;;5008648;28;20266;-74
2020/12/19 09:46:25;;;;;;;2.28;1.98;;;34.80;49.40;;;;;;5015405;28;20250;-74
2020/12/19 09:48:57;;;;;;;4.15;2.60;;;34.80;49.40;;;;;;5012110;28;20239;-73
2020/12/19 09:51:32;;;;;;;5.22;3.67;;;34.70;49.40;;;;;;5009386;28;20227;-74
2020/12/19 09:54:03;;;;;;;2.53;2.33;;;34.70;49.60;;;;;;5008761;28;20242;-74
2020/12/19 09:56:38;;;;;;;5.07;3.20;;;34.60;49.70;;;;;;5032613;28;20261;-74
2020/12/19 09:59:09;;;;;;;3.53;3.08;;;34.50;49.70;;;;;;5048289;28;20241;-74
2020/12/19 10:01:41;;;;;;;3.53;3.22;;;34.40;49.90;;;;;;5050818;28;20241;-73
2020/12/19 10:04:14;;;;;;;7.07;5.95;;;34.30;50.00;;;;;;5049377;28;20245;-73
2020/12/19 10:06:44;;;;;;;6.82;5.60;;;34.30;50.20;;;;;;5050824;28;20233;-73
2020/12/19 10:09:15;;;;;;;20.45;10.93;;;34.20;50.30;;;;;;5049421;28;20291;-73
2020/12/19 10:11:46;;;;;;;11.68;9.82;;;34.10;50.30;;;;;;5048105;28;20229;-73
2020/12/19 10:14:17;;;;;;;13.55;8.48;;;34.00;50.50;;;;;;5049552;28;20300;-74
2020/12/19 10:16:48;;;;;;;12.52;8.45;;;34.00;50.50;;;;;;5049754;28;20256;-74
2020/12/19 10:19:20;;;;;;;9.57;7.47;;;33.90;50.70;;;;;;5048642;28;20233;-74
2020/12/19 10:21:51;;;;;;;11.88;10.13;;;33.90;50.90;;;;;;5051511;28;20268;-73
2020/12/19 10:24:21;;;;;;;10.60;8.15;;;33.90;51.10;;;;;;5045006;28;20943;-73
2020/12/19 10:26:51;;;;;;;10.60;6.47;;;33.90;51.10;;;;;;5046060;28;20673;-74
2020/12/19 10:29:22;;;;;;;11.70;6.00;;;33.90;51.10;;;;;;5048240;28;20237;-74
2020/12/19 10:31:52;;;;;;;6.30;5.65;;;33.90;51.10;;;;;;5049868;28;20245;-74
2020/12/19 10:34:24;;;;;;;7.25;4.80;;;33.90;51.10;;;;;;5047518;28;20327;-73
2020/12/19 10:36:55;;;;;;;9.60;6.32;;;34.00;51.20;;;;;;5047288;28;20222;-74
2020/12/19 10:39:25;;;;;;;14.65;10.95;;;34.00;51.30;;;;;;5052031;28;20309;-74
2020/12/19 10:41:56;;;;;;;12.88;11.15;;;33.90;51.40;;;;;;5055971;28;20263;-74
2020/12/19 10:44:27;;;;;;;17.75;11.82;;;33.90;51.60;;;;;;5051777;28;20226;-74
2020/12/19 10:46:59;;;;;;;15.25;11.30;;;33.80;51.60;;;;;;5049270;28;20247;-74
2020/12/19 10:49:32;;;;;;;12.20;9.18;;;33.80;51.80;;;;;;5049164;28;20222;-74
2020/12/19 10:52:05;;;;;;;7.63;6.82;;;33.70;51.90;;;;;;5049125;28;20261;-74
2020/12/19 10:54:35;;;;;;;6.38;5.75;;;33.70;52.20;;;;;;5046409;28;20267;-74
2020/12/19 10:57:06;;;;;;;7.15;4.18;;;33.60;52.30;;;;;;5037218;28;20234;-74
2020/12/19 10:59:37;;;;;;;6.10;5.50;;;33.50;52.40;;;;;;5048268;28;20767;-74
2020/12/19 11:02:07;;;;;;;7.90;5.07;;;33.40;52.60;;;;;;5048781;28;20233;-74
2020/12/19 11:04:39;;;;;;;5.65;4.30;;;33.40;52.80;;;;;;5041790;28;20234;-74
2020/12/19 11:07:10;;;;;;;7.07;5.40;;;33.30;52.90;;;;;;5048406;28;20221;-74
2020/12/19 11:09:41;;;;;;;9.15;6.80;;;33.30;53.00;;;;;;5048953;28;20276;-74
2020/12/19 11:12:12;;;;;;;8.80;6.32;;;33.30;53.00;;;;;;5047554;28;20232;-73
2020/12/19 11:14:42;;;;;;;7.68;6.25;;;33.20;53.00;;;;;;5047410;28;20303;-74
2020/12/19 11:17:13;;;;;;;7.90;5.28;;;33.20;53.20;;;;;;5046288;28;20232;-74
2020/12/19 11:19:45;;;;;;;5.18;4.10;;;33.10;53.40;;;;;;5044072;28;20718;-73
2020/12/19 11:22:17;;;;;;;6.90;3.92;;;33.10;53.70;;;;;;5048078;28;20697;-73
2020/12/19 11:24:48;;;;;;;4.93;3.58;;;33.00;53.80;;;;;;5045623;28;20229;-74
2020/12/19 11:27:19;;;;;;;3.80;2.90;;;33.00;54.10;;;;;;5048401;28;20225;-73
2020/12/19 11:29:49;;;;;;;3.78;2.85;;;33.00;54.20;;;;;;5047436;28;20225;-73
2020/12/19 11:32:20;;;;;;;3.92;2.95;;;33.00;54.40;;;;;;5048238;28;20228;-74
2020/12/19 11:34:52;;;;;;;4.68;3.40;;;32.90;54.40;;;;;;5043434;28;20230;-73
2020/12/19 11:37:23;;;;;;;5.78;4.00;;;32.90;54.90;;;;;;5045044;28;20268;-73
2020/12/19 11:39:57;;;;;;;8.40;4.20;;;32.90;54.80;;;;;;5073294;28;20719;-73
2020/12/19 11:42:28;;;;;;;5.13;3.88;;;32.90;54.90;;;;;;5051613;28;20300;-73
2020/12/19 11:44:58;;;;;;;6.68;4.35;;;32.80;54.80;;;;;;5054423;28;20230;-73
2020/12/19 11:47:29;;;;;;;10.85;5.03;;;32.80;54.50;;;;;;5055517;28;20245;-72
2020/12/19 11:50:03;;;;;;;7.63;5.10;;;32.70;54.50;;;;;;5053223;28;20731;-74
2020/12/19 11:52:37;;;;;;;5.07;4.07;;;32.70;54.90;;;;;;5055040;28;20290;-74
2020/12/19 11:55:10;;;;;;;4.80;4.30;;;32.60;55.00;;;;;;5054106;28;20261;-72
2020/12/19 11:57:41;;;;;;;9.40;5.32;;;32.60;55.10;;;;;;5053757;28;20580;-72
2020/12/19 12:00:16;;;;;;;7.53;4.97;;;32.60;55.40;;;;;;5052708;28;20253;-72
2020/12/19 12:02:50;;;;;;;7.30;4.55;;;32.60;55.70;;;;;;5051342;28;20239;-73
2020/12/19 12:05:25;;;;;;;6.13;5.07;;;32.50;55.80;;;;;;5052430;28;20716;-73
2020/12/19 12:07:56;;;;;;;7.50;5.30;;;32.50;56.00;;;;;;5051346;28;20658;-73
2020/12/19 12:10:27;;;;;;;9.00;6.40;;;32.50;56.00;;;;;;5051504;28;20233;-72
2020/12/19 12:12:58;;;;;;;8.82;6.13;;;32.40;56.10;;;;;;5051934;28;20240;-72
2020/12/19 12:15:28;;;;;;;10.25;6.97;;;32.40;56.20;;;;;;5053977;28;20240;-72
2020/12/19 12:17:59;;;;;;;6.75;5.72;;;32.40;56.40;;;;;;5053483;28;20989;-72
2020/12/19 12:20:31;;;;;;;8.70;5.82;;;32.30;56.00;;;;;;5052972;28;20261;-73
2020/12/19 12:23:02;;;;;;;7.70;5.53;;;32.30;56.00;;;;;;5054774;28;20696;-72
2020/12/19 12:25:35;;;;;;;9.93;6.25;;;32.30;56.10;;;;;;5054742;28;20801;-73
2020/12/19 12:28:09;;;;;;;11.43;5.82;;;32.20;56.10;;;;;;5057308;28;20236;-73
2020/12/19 12:30:40;;;;;;;7.53;5.85;;;32.20;55.90;;;;;;5059104;28;20233;-72
2020/12/19 12:33:10;;;;;;;11.60;6.32;;;32.20;55.90;;;;;;5057366;28;20258;-73
2020/12/19 12:35:42;;;;;;;8.02;6.75;;;32.10;56.00;;;;;;5058822;28;20233;-72
2020/12/19 12:38:16;;;;;;;9.05;6.90;;;32.10;56.30;;;;;;5057874;28;20226;-73
2020/12/19 12:40:47;;;;;;;11.18;8.98;;;32.00;56.30;;;;;;5056897;28;20225;-73
2020/12/19 12:43:18;;;;;;;11.48;8.70;;;32.00;57.40;;;;;;5053465;28;20226;-73
2020/12/19 12:45:50;;;;;;;10.93;7.50;;;32.00;56.60;;;;;;5055125;28;20234;-73
2020/12/19 12:48:21;;;;;;;10.40;8.13;;;32.00;56.70;;;;;;5047979;28;20280;-73
2020/12/19 12:50:52;;;;;;;10.30;7.63;;;31.90;56.90;;;;;;5063626;28;20240;-74
2020/12/19 12:53:24;;;;;;;12.05;8.50;;;31.90;57.00;;;;;;5049772;28;20226;-73
2020/12/19 12:55:58;;;;;;;10.07;7.50;;;31.80;57.20;;;;;;5045540;28;20257;-72
2020/12/19 12:58:32;;;;;;;9.00;6.32;;;31.80;57.20;;;;;;5051170;28;20228;-72
2020/12/19 13:01:03;;;;;;;7.32;5.68;;;31.70;57.10;;;;;;5054027;28;20646;-74
2020/12/19 13:03:35;;;;;;;9.10;5.38;;;31.70;57.30;;;;;;5050745;28;20746;-73
2020/12/19 13:06:08;;;;;;;5.55;4.63;;;31.70;57.40;;;;;;5049108;28;20238;-73
2020/12/19 13:08:39;;;;;;;6.25;4.80;;;31.70;57.50;;;;;;5058794;28;20295;-73
2020/12/19 13:11:12;;;;;;;6.55;5.13;;;31.70;57.10;;;;;;5053279;28;20861;-73